Ashland, WV

1:05 PM EST on January 25, 2015 (GMT -0500)
APRSWXNET Lashmeet WV US | Change Station
CLOSE
Current Station
Personal Weather Station
Location: Lashmeet, WV
Elevation: 2647 ft
Nearby Weather Stations

Elev 2647 ft 37.42 °N, 81.20 °W | Updated 35 minutes ago

Partly Cloudy
Partly Cloudy
40 °F
Feels Like 40 °F
N
2
Wind Variable Wind from North
Gusts 5.0 mph

Today
High -- | Low -- °F
--% Chance of Precip.
Yesterday
High -- | Low -- °F
Precip. -- in
7:34 AM 5:42 PM
Waxing Crescent, 34% visible
Pressure 29.81 in
Visibility 10.0 miles
Clouds Clear
Windchill 40 °F
Dew Point 37 °F
Humidity 90%
Rainfall 0.12 in
Snow Depth Not available.
UV 4 out of 12
Pollen .10 out of 12
Air Quality Not available.
Flu Activity Not available.
METAR KBLF 251752Z AUTO 18006KT 10SM CLR 04/M01 A2978 RMK AO2 SLP092 T00441006 10044 21011 58011

More Conditions Fewer Conditions

Pressure 29.81 in
Visibility 10.0 miles
Clouds Clear
Windchill 40 °F
Dew Point 37 °F
Humidity 90%
Rainfall 0.12 in
Snow Depth Not available.
UV 4 out of 12
Pollen .10 out of 12
Air Quality Not available.
Flu Activity Not available.
METAR KBLF 251752Z AUTO 18006KT 10SM CLR 04/M01 A2978 RMK AO2 SLP092 T00441006 10044 21011 58011

More Conditions Fewer Conditions

10-Day Weather Forecast

Almanac

Astronomy

Jan. 25, 2015 Rise Set
Actual Time
Civil Twilight
Nautical Twilight
Astronomical Twilight
Moon
Length of Visible Light
Length of Day
Tomorrow will be .
, % of the Moon is Illuminated

Today's Extremes

State Highs State Lows

Community

WunderPhotos

Upload Photos

1,790,008 photos uploaded!

WunderBlogs® & News

Nearby

Air Quality

  Air Quality AQ Index Pollutant
Not available.

Snow Depth

Station Depth Elevation

Earthquake Activity

City Distance Mag. Time & Date
Minimum magnitude displayed is 2.5.

Coastal Water Temperatures

Place Temperature

Nearby Weather Stations